Airfield :
LOGIN :

Register | Disclaimer

   EN    FR    IT 

 










Legend :    VFR   Marginal VFR   IFR   Intensive IFR   Very Intensive IFR
Visi :
Ceiling :
>= 8 km
>= 3000ft
5 to 8 km
1000 to 3000 ft
1500m to 5 km
500 to 1000 ft
800 to 1500m
200 to 500 ft
< 800m
< 200 ft
Symbols :   Thunderstorms  Fog  Heavy snow  Heavy precipitations  Wind > 20 kt
SIGMETs :     Misc.  Thunderstorms  Icing  Turbulence  Mountain Waves  Volcanic Ashes






- Airport Elevation : 1363 ft


ETIC - Grafenwohr Army Air Field

CURRENT METAR :
  • 190756Z AUTO 00000KT 9999 SCT160 BKN200 27/27 A3000 RMK AO2 SLP138 T02690267 $

EXPIRED METARs :
  • 190656Z AUTO 00000KT 9999 FEW120 23/23 A3001 RMK AO2 SLP140 T02310229 $
  • 190556Z AUTO 00000KT 9999 CLR 21/20 A3000 RMK AO2 SLP136 T02050203 10205 20151 52007 $

TAF TAF ETIC
Valid from the 18 at 10:00 until the 19 at 16:00 UTC


181000Z 1810/1916 VRB06KT 9999 SKC QNH2996INS
BECMG 1911/1912 28009KT 8000 -SHRA BKN040 QNH2998INS
TEMPO 1914/1916 28012G18KT 6000 -TSRA BKN025CB OVC040 TX29/1813Z TN15/1903Z LAST NO AMDS AFT 1813 NEXT 2102



MET'MAP, your aeronautical weather chart ! - Copyright ORBIFLY December 2007 - Disclaimer

ORBIFLY MET'MAP TEAM :

Programming & Development : Alexandra Zaïnal
Concept & original design : Baudouin d'Aumeries
Assistance for programming : Marc-Olivier Méhu
Technical & hardware support : Manuel Goepfert

Contact : metmap@orbifly.com




SOURCES & CREDITS :

   NOAA